Gratkorn, Austria
Current Conditions -  °F | °C
As of 6:50 AM on Sunday 26 Oct 2014 (Local Time) from LOWG Reporting Station
Broken Clouds Broken Clouds  
Wind Chill: 43°   Ceiling: 600
Heat Index: 43°   Visibility: 5mi
Dew Point: 41°   Wind: 2mph
Humidity: 93%   Direction: 80°E
Pressure: 30.33"   Gusts: NA
Location:  47.13°N, 15.35°E
Report Text: LOWG 260450Z 08002KT 8000 BKN006 BKN012 06/05 Q1027 TEMPO BKN012
Loading
Personal Weather Stations






























Interactive Weather Map
Tropical Storm Tracking
New forecast layout! Learn more

10-Day Weather Forecast

Advertisements
Track Severe Weather on mobile